Time;durP1;ratioP1;P1;durP2;ratioP2;P2;SDS_P1;SDS_P2;PMS_P1;PMS_P2;Temp;Humidity;BMP_temperature;BMP_pressure;BME280_temperature;BME280_humidity;BME280_pressure;Samples;Min_cycle;Max_cycle;Signal;HPM_P1;HPM_P2
2023/05/15 00:00:12;;;;;;;76.57;41.03;;;11.50;99.90;;;;;;5045863;28;20041;-67
2023/05/15 00:02:39;;;;;;;85.40;41.42;;;11.40;99.90;;;;;;5030043;28;20124;-71
2023/05/15 00:05:08;;;;;;;81.93;41.65;;;11.40;99.90;;;;;;5029863;28;20068;-67
2023/05/15 00:07:35;;;;;;;86.18;42.53;;;11.40;99.90;;;;;;5029940;28;20487;-68
2023/05/15 00:10:01;;;;;;;78.65;41.28;;;11.40;99.90;;;;;;5045806;28;20041;-67
2023/05/15 00:12:27;;;;;;;87.55;41.97;;;11.40;99.90;;;;;;5046391;28;20099;-68
2023/05/15 00:14:53;;;;;;;85.18;42.72;;;11.30;99.90;;;;;;5029040;28;20045;-68
2023/05/15 00:17:19;;;;;;;90.10;42.75;;;11.30;99.90;;;;;;5062928;28;20055;-67
2023/05/15 00:19:45;;;;;;;88.93;44.33;;;11.40;99.90;;;;;;5029046;28;20040;-69
2023/05/15 00:22:11;;;;;;;79.80;42.00;;;11.30;99.90;;;;;;5046537;28;20575;-67
2023/05/15 00:24:37;;;;;;;84.55;43.35;;;11.30;99.90;;;;;;5046219;28;20120;-68
2023/05/15 00:27:04;;;;;;;88.20;42.17;;;11.30;99.90;;;;;;5030165;28;20156;-70
2023/05/15 00:29:30;;;;;;;90.32;43.25;;;11.30;99.90;;;;;;5028522;28;20071;-71
2023/05/15 00:31:56;;;;;;;105.90;46.05;;;11.30;99.90;;;;;;5029783;28;20037;-67
2023/05/15 00:34:23;;;;;;;94.40;44.92;;;11.20;99.90;;;;;;5029389;28;20055;-69
2023/05/15 00:36:49;;;;;;;88.45;44.15;;;11.20;99.90;;;;;;5046024;28;20036;-68
2023/05/15 00:39:15;;;;;;;99.90;46.05;;;11.20;99.90;;;;;;5028793;28;20072;-68
2023/05/15 00:41:42;;;;;;;112.43;47.70;;;11.20;99.90;;;;;;5045933;28;20029;-67
2023/05/15 00:44:10;;;;;;;91.38;45.53;;;11.20;99.90;;;;;;5029215;28;20047;-66
2023/05/15 00:46:38;;;;;;;100.30;47.47;;;11.10;99.90;;;;;;5029423;28;20041;-67
2023/05/15 00:49:05;;;;;;;98.32;48.97;;;11.10;99.90;;;;;;5028701;28;20041;-66
2023/05/15 00:51:32;;;;;;;96.45;46.10;;;11.10;99.90;;;;;;5029240;28;20041;-69
2023/05/15 00:53:58;;;;;;;98.72;45.15;;;11.00;99.90;;;;;;5039515;28;20557;-66
2023/05/15 00:56:24;;;;;;;89.07;45.28;;;11.00;99.90;;;;;;5045487;28;20408;-67
2023/05/15 00:58:52;;;;;;;83.80;44.08;;;11.00;99.90;;;;;;5044972;28;20191;-67
2023/05/15 01:01:18;;;;;;;94.43;45.80;;;11.00;99.90;;;;;;5045303;28;20475;-67
2023/05/15 01:03:45;;;;;;;92.82;46.13;;;10.90;99.90;;;;;;5029362;28;20037;-66
2023/05/15 01:06:11;;;;;;;96.22;46.65;;;10.80;99.90;;;;;;5028906;28;20095;-66
2023/05/15 01:08:41;;;;;;;96.05;46.88;;;10.80;99.90;;;;;;5044921;28;20080;-71
2023/05/15 01:11:07;;;;;;;99.75;47.45;;;10.80;99.90;;;;;;5028275;28;20048;-69
2023/05/15 01:13:33;;;;;;;105.90;49.95;;;10.80;99.90;;;;;;5045561;28;20041;-67
2023/05/15 01:15:59;;;;;;;96.60;47.50;;;10.70;99.90;;;;;;5044943;28;20106;-67
2023/05/15 01:18:31;;;;;;;112.03;50.25;;;10.70;99.90;;;;;;5045107;28;20099;-67
2023/05/15 01:21:15;;;;;;;111.68;50.33;;;10.80;99.90;;;;;;5044840;28;20111;-66
2023/05/15 01:24:16;;;;;;;111.70;49.55;;;10.80;99.90;;;;;;5043971;28;20033;-68
2023/05/15 01:27:19;;;;;;;117.57;49.35;;;10.80;99.90;;;;;;5047879;28;20036;-70
2023/05/15 01:30:10;;;;;;;97.25;48.75;;;10.80;99.90;;;;;;5064117;28;20124;-68
2023/05/15 01:32:45;;;;;;;117.78;49.30;;;10.70;99.90;;;;;;5064713;28;20438;-69
2023/05/15 01:35:28;;;;;;;110.72;48.38;;;10.70;99.90;;;;;;5048464;28;20480;-67
2023/05/15 01:38:13;;;;;;;107.18;48.50;;;10.70;99.90;;;;;;5031262;28;20045;-66
2023/05/15 01:40:40;;;;;;;97.82;47.60;;;10.70;99.90;;;;;;5044164;28;20083;-68
2023/05/15 01:43:15;;;;;;;125.68;49.70;;;10.70;99.90;;;;;;5027857;28;20040;-69
2023/05/15 01:45:42;;;;;;;;;;;10.70;99.90;;;;;;5028686;28;20558;-68
2023/05/15 01:48:08;;;;;;;101.63;44.83;;;10.70;99.90;;;;;;5044880;28;19961;-68
2023/05/15 01:50:37;;;;;;;97.63;45.50;;;10.60;99.90;;;;;;5042179;28;20158;-67
2023/05/15 01:53:09;;;;;;;97.20;45.42;;;10.60;99.90;;;;;;5030706;28;20524;-67
2023/05/15 01:55:37;;;;;;;91.80;45.40;;;10.60;99.90;;;;;;5044018;28;20057;-67
2023/05/15 01:58:07;;;;;;;96.65;46.83;;;10.60;99.90;;;;;;5044616;28;20061;-67
2023/05/15 02:00:33;;;;;;;92.80;45.90;;;10.60;99.90;;;;;;5043794;28;20519;-68
2023/05/15 02:03:00;;;;;;;100.75;47.53;;;10.60;99.90;;;;;;5027838;28;20048;-69
2023/05/15 02:05:26;;;;;;;101.47;47.55;;;10.60;99.90;;;;;;5027740;28;20040;-68
2023/05/15 02:07:52;;;;;;;95.38;46.20;;;10.60;99.90;;;;;;5044066;28;20147;-67
2023/05/15 02:10:19;;;;;;;100.65;47.97;;;10.50;99.90;;;;;;5044328;28;20567;-68
2023/05/15 02:12:45;;;;;;;102.10;48.28;;;10.60;99.90;;;;;;5044136;28;20055;-67
2023/05/15 02:15:13;;;;;;;104.72;46.90;;;10.60;99.90;;;;;;5043950;28;20086;-66
2023/05/15 02:17:39;;;;;;;103.07;47.63;;;10.60;99.90;;;;;;5044008;28;20148;-68
2023/05/15 02:20:06;;;;;;;101.68;47.40;;;10.60;99.90;;;;;;5043683;28;20558;-67
2023/05/15 02:22:32;;;;;;;91.50;45.92;;;10.70;99.90;;;;;;5037645;28;20036;-67
2023/05/15 02:24:58;;;;;;;100.07;47.88;;;10.70;99.90;;;;;;5044644;28;20436;-67
2023/05/15 02:27:52;;;;;;;103.25;48.10;;;10.70;99.90;;;;;;5025875;28;20495;-69
2023/05/15 02:30:36;;;;;;;93.57;46.10;;;10.70;99.90;;;;;;5040908;28;20114;-67
2023/05/15 02:33:10;;;;;;;93.90;46.78;;;10.80;99.90;;;;;;5044211;28;20568;-68
2023/05/15 02:35:45;;;;;;;;;;;10.80;99.90;;;;;;5044260;28;20091;-68
2023/05/15 02:38:16;;;;;;;86.10;45.15;;;10.80;99.90;;;;;;5043746;28;20367;-68
2023/05/15 02:40:44;;;;;;;103.28;49.80;;;10.80;99.90;;;;;;5043402;28;20535;-68
2023/05/15 02:43:12;;;;;;;90.75;45.70;;;10.80;99.90;;;;;;5060833;28;20046;-68
2023/05/15 02:45:38;;;;;;;85.32;44.00;;;10.80;99.90;;;;;;5027099;28;20075;-69
2023/05/15 02:48:05;;;;;;;83.32;44.38;;;10.80;99.90;;;;;;5043479;28;20049;-68
2023/05/15 02:50:31;;;;;;;94.22;44.50;;;10.70;99.90;;;;;;5040457;28;20048;-67
2023/05/15 02:53:04;;;;;;;83.80;44.55;;;10.70;99.90;;;;;;5043293;28;20143;-67
2023/05/15 02:55:30;;;;;;;87.25;43.50;;;10.70;99.90;;;;;;5043688;28;20036;-68
2023/05/15 02:57:57;;;;;;;99.43;45.75;;;10.70;99.90;;;;;;5059838;28;20140;-69
2023/05/15 03:00:23;;;;;;;98.28;44.95;;;10.70;99.90;;;;;;5026104;28;20039;-67
2023/05/15 03:02:49;;;;;;;80.95;41.90;;;10.60;99.90;;;;;;5043836;28;20470;-67
2023/05/15 03:05:15;;;;;;;94.22;41.78;;;10.60;99.90;;;;;;5043756;28;20648;-69
2023/05/15 03:07:41;;;;;;;83.43;43.20;;;10.50;99.90;;;;;;5043114;28;20036;-68
2023/05/15 03:10:07;;;;;;;108.88;45.25;;;10.50;99.90;;;;;;5043261;28;20539;-68
2023/05/15 03:12:33;;;;;;;92.10;44.25;;;10.50;99.90;;;;;;5026787;28;20052;-68
2023/05/15 03:15:02;;;;;;;92.63;43.03;;;10.40;99.90;;;;;;5045974;28;20496;-68
2023/05/15 03:17:28;;;;;;;100.07;43.38;;;10.40;99.90;;;;;;5046911;28;20465;-67
2023/05/15 03:19:55;;;;;;;87.60;42.05;;;10.40;99.90;;;;;;5045791;28;20471;-69
2023/05/15 03:22:21;;;;;;;87.40;41.42;;;10.30;99.90;;;;;;5051659;28;20114;-69
2023/05/15 03:24:47;;;;;;;93.43;42.60;;;10.30;99.90;;;;;;5043601;28;20469;-69
2023/05/15 03:27:12;;;;;;;105.25;43.05;;;10.30;99.90;;;;;;5025108;28;20107;-69
2023/05/15 03:29:38;;;;;;;124.22;45.63;;;10.20;99.90;;;;;;5025870;28;20045;-68
2023/05/15 03:32:04;;;;;;;100.03;44.58;;;10.20;99.90;;;;;;5026638;28;20059;-68
2023/05/15 03:34:31;;;;;;;148.85;45.25;;;10.20;99.90;;;;;;5026542;28;20037;-68
2023/05/15 03:36:57;;;;;;;124.28;47.38;;;10.20;99.90;;;;;;5043321;28;20041;-68
2023/05/15 03:39:22;;;;;;;103.25;44.60;;;10.10;99.90;;;;;;5026102;28;20037;-68
2023/05/15 03:41:48;;;;;;;141.05;46.17;;;10.10;99.90;;;;;;5043393;28;20114;-63
2023/05/15 03:44:14;;;;;;;108.50;44.15;;;10.10;99.90;;;;;;5042723;28;20433;-69
2023/05/15 03:46:40;;;;;;;87.40;41.47;;;10.00;99.90;;;;;;5026485;28;20043;-70
2023/05/15 03:49:07;;;;;;;101.63;43.88;;;9.90;99.90;;;;;;5028374;28;20057;-69
2023/05/15 03:51:33;;;;;;;110.88;45.10;;;9.90;99.90;;;;;;5026477;28;20068;-69
2023/05/15 03:53:59;;;;;;;100.72;43.15;;;9.80;99.90;;;;;;5043059;28;20520;-66
2023/05/15 03:56:25;;;;;;;95.95;43.03;;;9.80;99.90;;;;;;5026718;28;20051;-67
2023/05/15 03:58:52;;;;;;;101.25;42.88;;;9.80;99.90;;;;;;5042076;28;20127;-68
2023/05/15 04:01:18;;;;;;;109.18;45.17;;;9.80;99.90;;;;;;5042984;28;20162;-67
2023/05/15 04:03:44;;;;;;;103.40;44.38;;;9.80;99.90;;;;;;5042996;28;20534;-68
2023/05/15 04:06:10;;;;;;;95.93;42.25;;;9.70;99.90;;;;;;5028541;28;20128;-69
2023/05/15 04:08:35;;;;;;;98.18;43.17;;;9.70;99.90;;;;;;5046433;28;20049;-69
2023/05/15 04:11:01;;;;;;;97.00;42.47;;;9.70;99.90;;;;;;5030309;28;20132;-69
2023/05/15 04:13:30;;;;;;;96.30;39.97;;;9.70;99.90;;;;;;5030007;28;20446;-70
2023/05/15 04:15:58;;;;;;;95.20;41.22;;;9.70;99.90;;;;;;5046343;28;20385;-68
2023/05/15 04:18:25;;;;;;;86.60;40.03;;;9.70;99.90;;;;;;5045642;28;20064;-69
2023/05/15 04:20:51;;;;;;;84.90;38.92;;;9.70;99.90;;;;;;5045819;28;20132;-71
2023/05/15 04:23:17;;;;;;;80.57;37.33;;;9.70;99.90;;;;;;5044608;28;20041;-69
2023/05/15 04:25:45;;;;;;;72.90;35.70;;;9.70;99.90;;;;;;5046598;28;20594;-68
2023/05/15 04:28:14;;;;;;;74.60;36.08;;;9.60;99.90;;;;;;5049294;28;20579;-68
2023/05/15 04:30:40;;;;;;;58.75;29.45;;;9.70;99.90;;;;;;5045843;28;20588;-68
2023/05/15 04:33:06;;;;;;;73.05;33.58;;;9.60;99.90;;;;;;5053325;28;20123;-69
2023/05/15 04:35:33;;;;;;;55.33;30.08;;;9.60;99.90;;;;;;5044342;28;20123;-69
2023/05/15 04:37:58;;;;;;;60.97;31.55;;;9.50;99.90;;;;;;5045967;28;20072;-69
2023/05/15 04:40:24;;;;;;;55.78;29.77;;;9.50;99.90;;;;;;5045854;28;20507;-67
2023/05/15 04:42:50;;;;;;;57.33;29.17;;;9.50;99.90;;;;;;5062168;28;20451;-69
2023/05/15 04:45:17;;;;;;;57.95;29.48;;;9.50;99.90;;;;;;5052981;28;20045;-68
2023/05/15 04:47:42;;;;;;;54.13;29.08;;;9.50;99.90;;;;;;5049847;28;20331;-67
2023/05/15 04:50:09;;;;;;;51.53;29.90;;;9.50;99.90;;;;;;5049811;28;20055;-71
2023/05/15 04:52:35;;;;;;;57.33;31.45;;;9.50;99.90;;;;;;5061277;28;20403;-70
2023/05/15 04:55:00;;;;;;;51.10;31.08;;;9.50;99.90;;;;;;5045680;28;20080;-68
2023/05/15 04:57:27;;;;;;;52.10;31.63;;;9.50;99.90;;;;;;5045014;28;20057;-71
2023/05/15 04:59:53;;;;;;;52.30;31.80;;;9.50;99.90;;;;;;5044297;28;20048;-70
2023/05/15 05:02:21;;;;;;;53.42;33.10;;;9.60;99.90;;;;;;5045576;28;20549;-70
2023/05/15 05:04:46;;;;;;;48.45;31.83;;;9.60;99.90;;;;;;5044898;28;20041;-66
2023/05/15 05:07:13;;;;;;;50.22;32.22;;;9.70;99.90;;;;;;5029291;28;20102;-67
2023/05/15 05:09:39;;;;;;;51.88;32.72;;;9.70;99.90;;;;;;5028432;28;20075;-68
2023/05/15 05:12:08;;;;;;;49.83;32.45;;;9.80;99.90;;;;;;5045196;28;20041;-68
2023/05/15 05:14:34;;;;;;;50.35;33.03;;;9.80;99.90;;;;;;5059985;28;20128;-71
2023/05/15 05:17:00;;;;;;;47.15;30.92;;;9.90;99.90;;;;;;5048752;28;20044;-68
2023/05/15 05:19:29;;;;;;;47.97;31.67;;;9.90;99.90;;;;;;5055205;28;20044;-69
2023/05/15 05:21:57;;;;;;;51.60;34.15;;;9.90;99.90;;;;;;5045347;28;20056;-68
2023/05/15 05:24:23;;;;;;;48.63;31.88;;;9.90;99.90;;;;;;5045235;28;20067;-67
2023/05/15 05:26:49;;;;;;;54.90;33.83;;;9.90;99.90;;;;;;5045473;28;20122;-68
2023/05/15 05:29:15;;;;;;;52.42;33.78;;;10.00;99.90;;;;;;5047365;28;20641;-72
2023/05/15 05:31:41;;;;;;;50.78;32.60;;;10.00;99.90;;;;;;5043918;28;20048;-68
2023/05/15 05:34:08;;;;;;;49.65;32.42;;;10.10;99.90;;;;;;5034753;28;20044;-67
2023/05/15 05:36:35;;;;;;;52.90;32.38;;;10.10;99.90;;;;;;5045250;28;20110;-69
2023/05/15 05:39:03;;;;;;;48.58;32.10;;;10.20;99.90;;;;;;5050336;28;20412;-70
2023/05/15 05:41:29;;;;;;;47.58;30.75;;;10.20;99.90;;;;;;5048321;28;20044;-68
2023/05/15 05:43:55;;;;;;;49.45;30.60;;;10.30;99.90;;;;;;5046796;28;20119;-68
2023/05/15 05:46:21;;;;;;;41.10;27.45;;;10.30;99.90;;;;;;5041824;28;20079;-68
2023/05/15 05:48:49;;;;;;;42.53;27.75;;;10.40;99.90;;;;;;5043582;28;20600;-69
2023/05/15 05:51:15;;;;;;;41.03;27.35;;;10.60;99.90;;;;;;5044407;28;20500;-69
2023/05/15 05:53:41;;;;;;;37.10;26.02;;;10.70;99.90;;;;;;5044593;28;20182;-67
2023/05/15 05:56:07;;;;;;;36.05;24.40;;;10.80;99.90;;;;;;5061853;28;20075;-70
2023/05/15 05:58:32;;;;;;;34.70;23.77;;;11.10;99.90;;;;;;5046055;28;20047;-68
2023/05/15 06:00:59;;;;;;;33.25;22.55;;;11.40;99.90;;;;;;5061885;28;20175;-70
2023/05/15 06:03:26;;;;;;;29.55;21.02;;;11.70;99.90;;;;;;5043623;28;20098;-68
2023/05/15 06:05:52;;;;;;;32.97;21.85;;;11.80;99.90;;;;;;5062928;28;20087;-68
2023/05/15 06:08:18;;;;;;;31.02;21.95;;;11.80;99.90;;;;;;5039657;28;20424;-67
2023/05/15 06:10:45;;;;;;;32.42;20.70;;;11.70;99.90;;;;;;5044409;28;20530;-67
2023/05/15 06:13:13;;;;;;;30.95;20.65;;;11.70;99.90;;;;;;5044378;28;20040;-72
2023/05/15 06:15:39;;;;;;;31.88;20.55;;;11.60;99.90;;;;;;5043777;28;20135;-68
2023/05/15 06:18:05;;;;;;;27.90;20.55;;;11.60;99.90;;;;;;5027525;28;20415;-68
2023/05/15 06:20:32;;;;;;;28.52;20.17;;;11.70;99.90;;;;;;5041212;28;20044;-66
2023/05/15 06:22:58;;;;;;;28.65;20.38;;;11.90;99.90;;;;;;5058340;28;20427;-71
2023/05/15 06:25:23;;;;;;;25.77;18.63;;;12.10;99.90;;;;;;5063570;28;20032;-68
2023/05/15 06:27:49;;;;;;;24.30;18.40;;;12.30;99.90;;;;;;5038598;28;20423;-69
2023/05/15 06:30:15;;;;;;;26.38;19.60;;;12.50;99.90;;;;;;5044909;28;20048;-67
2023/05/15 06:32:41;;;;;;;24.70;18.25;;;12.50;99.90;;;;;;5047304;28;20072;-68
2023/05/15 06:35:08;;;;;;;23.45;17.33;;;12.50;99.90;;;;;;5043128;28;21378;-69
2023/05/15 06:37:35;;;;;;;27.67;17.70;;;12.70;99.90;;;;;;5056352;28;20084;-69
2023/05/15 06:40:02;;;;;;;23.50;16.65;;;13.00;99.90;;;;;;5043410;28;20163;-67
2023/05/15 06:42:27;;;;;;;21.50;15.95;;;13.20;99.90;;;;;;5043972;28;20543;-67
2023/05/15 06:44:53;;;;;;;23.98;15.98;;;13.50;99.90;;;;;;5046734;28;20084;-68
2023/05/15 06:47:19;;;;;;;23.63;16.65;;;13.70;99.90;;;;;;5042681;28;20048;-70
2023/05/15 06:49:45;;;;;;;24.02;16.98;;;13.70;99.90;;;;;;5032616;28;20492;-71
2023/05/15 06:52:11;;;;;;;24.20;16.58;;;13.70;99.90;;;;;;5044643;28;20407;-70
2023/05/15 06:54:39;;;;;;;23.48;16.50;;;13.60;99.90;;;;;;5046038;28;20036;-72
2023/05/15 06:57:05;;;;;;;25.27;18.88;;;13.50;99.90;;;;;;5062957;28;20052;-70
2023/05/15 06:59:34;;;;;;;27.63;18.95;;;13.50;99.90;;;;;;5045708;28;20066;-69
2023/05/15 07:02:01;;;;;;;25.75;18.48;;;13.50;99.90;;;;;;5063920;28;20701;-70
2023/05/15 07:04:28;;;;;;;25.83;19.02;;;13.50;99.90;;;;;;5045119;28;20048;-69
2023/05/15 07:06:53;;;;;;;27.15;18.92;;;13.60;99.90;;;;;;5063697;28;20569;-71
2023/05/15 07:09:19;;;;;;;26.10;18.65;;;13.50;99.90;;;;;;5059593;28;20040;-71
2023/05/15 07:11:45;;;;;;;21.98;16.10;;;13.50;99.90;;;;;;5062072;28;20485;-69
2023/05/15 07:14:10;;;;;;;26.25;18.42;;;13.50;99.90;;;;;;5047263;28;20566;-68
2023/05/15 07:16:36;;;;;;;22.25;16.80;;;13.60;99.90;;;;;;5045994;28;20040;-70
2023/05/15 07:19:02;;;;;;;25.30;17.60;;;13.70;99.90;;;;;;5061499;28;20331;-71
2023/05/15 07:21:27;;;;;;;23.77;15.50;;;13.90;99.90;;;;;;5059101;28;20101;-68
2023/05/15 07:23:53;;;;;;;22.45;14.88;;;14.00;99.90;;;;;;5060046;28;20044;-70
2023/05/15 07:26:19;;;;;;;23.77;17.23;;;14.20;99.90;;;;;;5046510;28;20508;-71
2023/05/15 07:28:45;;;;;;;20.70;14.48;;;14.30;99.90;;;;;;5060052;28;20054;-68
2023/05/15 07:31:11;;;;;;;23.33;13.82;;;14.40;99.90;;;;;;5062291;28;20036;-67
2023/05/15 07:33:36;;;;;;;19.98;14.18;;;14.50;99.90;;;;;;5045110;28;20500;-68
2023/05/15 07:36:02;;;;;;;21.95;14.30;;;14.50;99.90;;;;;;5067209;28;20470;-70
2023/05/15 07:38:28;;;;;;;20.02;14.02;;;14.60;99.90;;;;;;5050077;28;20554;-69
2023/05/15 07:40:54;;;;;;;20.15;14.13;;;14.60;99.90;;;;;;5061989;28;20056;-68
2023/05/15 07:43:20;;;;;;;16.40;12.15;;;14.70;99.90;;;;;;5065695;28;20044;-68
2023/05/15 07:45:45;;;;;;;18.92;13.23;;;14.70;99.90;;;;;;5047980;28;20050;-67
2023/05/15 07:48:16;;;;;;;21.02;13.57;;;14.70;99.90;;;;;;5065525;28;20117;-67
2023/05/15 07:50:43;;;;;;;19.85;13.32;;;14.80;99.90;;;;;;5048632;28;20040;-70
2023/05/15 07:53:10;;;;;;;17.48;12.30;;;14.80;99.90;;;;;;5064721;28;20119;-68
2023/05/15 07:55:35;;;;;;;19.38;12.38;;;14.90;99.90;;;;;;5067027;28;20411;-70
2023/05/15 07:58:01;;;;;;;18.92;12.32;;;14.90;99.90;;;;;;5047702;28;20052;-69
2023/05/15 08:00:27;;;;;;;18.25;13.00;;;15.00;99.90;;;;;;5065158;28;20039;-67
2023/05/15 08:02:53;;;;;;;18.45;12.70;;;15.00;99.90;;;;;;5047634;28;20037;-68
2023/05/15 08:05:19;;;;;;;18.58;12.50;;;15.10;99.90;;;;;;5062966;28;20048;-72
2023/05/15 08:07:45;;;;;;;16.33;12.50;;;15.20;99.90;;;;;;5047785;28;20044;-68
2023/05/15 08:10:11;;;;;;;20.63;11.93;;;15.20;99.90;;;;;;5065729;28;20051;-68
2023/05/15 08:12:36;;;;;;;17.73;13.50;;;15.30;99.90;;;;;;5035823;28;20041;-71
2023/05/15 08:15:02;;;;;;;19.63;12.32;;;15.30;99.90;;;;;;5028844;28;20048;-69
2023/05/15 08:17:28;;;;;;;19.40;11.57;;;15.30;99.90;;;;;;5046531;28;20044;-67
2023/05/15 08:19:54;;;;;;;17.95;12.32;;;15.40;99.90;;;;;;5046243;28;20063;-70
2023/05/15 08:22:20;;;;;;;17.40;11.95;;;15.80;99.90;;;;;;5056612;28;20280;-68
2023/05/15 08:24:46;;;;;;;19.33;12.05;;;16.10;99.90;;;;;;5046430;28;20039;-68
2023/05/15 08:27:12;;;;;;;17.30;11.45;;;16.20;99.90;;;;;;5053678;28;20067;-72
2023/05/15 08:29:38;;;;;;;16.65;10.82;;;16.30;99.90;;;;;;5043923;28;20068;-68
2023/05/15 08:32:06;;;;;;;18.83;10.90;;;16.40;99.90;;;;;;5046915;28;20558;-69
2023/05/15 08:34:31;;;;;;;16.60;11.95;;;16.40;99.90;;;;;;5056200;28;20036;-72
2023/05/15 08:36:58;;;;;;;18.40;11.48;;;16.40;99.90;;;;;;5049512;28;20091;-67
2023/05/15 08:39:24;;;;;;;14.68;11.30;;;16.30;99.90;;;;;;5044567;28;20114;-69
2023/05/15 08:41:56;;;;;;;17.40;11.90;;;16.30;99.90;;;;;;5063173;28;20051;-66
2023/05/15 08:44:23;;;;;;;21.60;11.75;;;16.20;99.90;;;;;;5045334;28;20045;-66
2023/05/15 08:46:49;;;;;;;16.73;11.38;;;16.10;99.90;;;;;;5052481;28;20037;-67
2023/05/15 08:49:33;;;;;;;14.98;11.25;;;16.00;99.90;;;;;;5058516;28;20056;-67
2023/05/15 08:51:59;;;;;;;17.48;11.82;;;16.00;99.90;;;;;;5050898;28;20047;-66
2023/05/15 08:54:25;;;;;;;19.65;12.55;;;15.80;99.90;;;;;;5053708;28;20132;-69
2023/05/15 08:56:52;;;;;;;18.67;12.63;;;15.80;99.90;;;;;;5045832;28;20102;-70
2023/05/15 08:59:18;;;;;;;15.60;11.35;;;15.70;99.90;;;;;;5044793;28;20060;-66
2023/05/15 09:01:44;;;;;;;16.63;11.82;;;15.70;99.90;;;;;;5062648;28;20511;-69
2023/05/15 09:04:09;;;;;;;17.88;11.63;;;15.60;99.90;;;;;;5045403;28;20602;-70
2023/05/15 09:06:37;;;;;;;15.88;10.45;;;15.60;99.90;;;;;;5054338;28;20040;-65
2023/05/15 09:09:04;;;;;;;17.63;10.90;;;15.50;99.90;;;;;;5062965;28;20120;-72
2023/05/15 09:11:31;;;;;;;17.83;11.27;;;15.60;99.90;;;;;;5062740;28;20127;-71
2023/05/15 09:14:00;;;;;;;16.85;11.27;;;15.70;99.90;;;;;;5062760;28;20044;-70
2023/05/15 09:16:26;;;;;;;19.17;11.82;;;15.80;99.90;;;;;;5047541;28;20411;-69
2023/05/15 09:18:52;;;;;;;14.77;10.52;;;15.90;99.90;;;;;;5043887;28;20041;-70
2023/05/15 09:21:27;;;;;;;15.88;11.77;;;16.00;99.90;;;;;;5060309;28;20541;-68
2023/05/15 09:23:54;;;;;;;18.33;11.95;;;16.10;99.90;;;;;;5045619;28;20385;-70
2023/05/15 09:26:20;;;;;;;15.55;11.10;;;16.10;99.90;;;;;;5048666;28;20405;-69
2023/05/15 09:28:47;;;;;;;16.63;12.10;;;16.10;99.90;;;;;;5064405;28;20078;-68
2023/05/15 09:31:13;;;;;;;15.35;11.27;;;16.20;99.90;;;;;;5028313;28;20729;-67
2023/05/15 09:33:41;;;;;;;15.75;11.32;;;16.30;99.90;;;;;;5063653;28;20044;-67
2023/05/15 09:36:08;;;;;;;18.27;12.70;;;16.40;99.90;;;;;;5039889;28;20133;-70
2023/05/15 09:38:38;;;;;;;14.93;10.63;;;16.50;99.90;;;;;;5043593;28;20049;-67
2023/05/15 09:41:06;;;;;;;13.57;10.55;;;16.50;99.90;;;;;;5065734;28;20129;-67
2023/05/15 09:43:40;;;;;;;12.90;10.15;;;16.50;99.90;;;;;;5051534;28;20047;-70
2023/05/15 09:46:07;;;;;;;16.90;10.05;;;16.50;99.90;;;;;;5036539;28;20051;-66
2023/05/15 09:48:34;;;;;;;12.18;9.80;;;16.50;99.90;;;;;;5050581;28;20140;-68
2023/05/15 09:51:01;;;;;;;13.85;10.20;;;16.50;99.90;;;;;;5036753;28;20048;-67
2023/05/15 09:53:27;;;;;;;16.90;10.95;;;16.50;99.90;;;;;;5036530;28;20051;-67
2023/05/15 09:55:54;;;;;;;16.58;10.30;;;16.50;99.90;;;;;;5052841;28;20045;-70
2023/05/15 09:58:19;;;;;;;15.40;10.40;;;16.50;99.90;;;;;;5035894;28;20044;-67
2023/05/15 10:00:46;;;;;;;16.60;11.05;;;16.50;99.90;;;;;;5052682;28;20118;-67
2023/05/15 10:03:13;;;;;;;15.73;10.20;;;16.50;99.90;;;;;;5052227;28;20499;-67
2023/05/15 10:05:39;;;;;;;17.08;10.77;;;16.60;99.90;;;;;;5034631;28;20056;-67
2023/05/15 10:08:05;;;;;;;13.65;10.02;;;16.60;99.90;;;;;;5050464;28;20044;-68
2023/05/15 10:10:31;;;;;;;14.43;9.57;;;16.60;99.90;;;;;;5053446;28;20105;-69
2023/05/15 10:13:03;;;;;;;16.48;9.93;;;16.50;99.90;;;;;;5036100;28;20817;-69
2023/05/15 10:15:29;;;;;;;15.35;9.52;;;16.60;99.90;;;;;;5034203;28;20048;-68
2023/05/15 10:17:55;;;;;;;15.88;10.10;;;16.60;99.90;;;;;;5053749;28;20056;-66
2023/05/15 10:20:23;;;;;;;12.25;8.93;;;16.60;99.90;;;;;;5053081;28;20040;-68
2023/05/15 10:22:55;;;;;;;12.90;8.05;;;16.70;99.90;;;;;;5051058;28;20396;-65
2023/05/15 10:25:38;;;;;;;13.43;8.73;;;16.80;99.90;;;;;;5052267;28;20248;-65
2023/05/15 10:28:08;;;;;;;15.05;9.85;;;16.90;99.90;;;;;;5052914;28;20051;-68
2023/05/15 10:30:35;;;;;;;13.00;9.55;;;16.90;99.90;;;;;;5052766;28;20053;-67
2023/05/15 10:33:03;;;;;;;14.88;9.57;;;16.90;99.90;;;;;;5052609;28;20052;-68
2023/05/15 10:35:29;;;;;;;12.13;9.02;;;16.90;99.90;;;;;;5049858;28;20783;-65
2023/05/15 10:37:56;;;;;;;12.68;8.40;;;17.00;99.90;;;;;;5069179;28;20087;-70
2023/05/15 10:40:22;;;;;;;13.32;8.75;;;17.10;99.90;;;;;;5051006;28;20629;-70
2023/05/15 10:42:49;;;;;;;15.93;9.60;;;17.20;99.90;;;;;;5051606;28;20093;-66
2023/05/15 10:45:15;;;;;;;13.00;8.15;;;17.20;99.90;;;;;;5070088;28;20784;-70
2023/05/15 10:47:42;;;;;;;13.07;9.05;;;17.20;99.90;;;;;;5049957;28;20041;-71
2023/05/15 10:50:09;;;;;;;14.57;9.48;;;17.20;99.90;;;;;;5083890;28;20044;-69
2023/05/15 10:52:35;;;;;;;13.45;8.82;;;17.20;99.90;;;;;;5034050;28;20040;-72
2023/05/15 10:55:04;;;;;;;15.25;9.70;;;17.20;99.90;;;;;;5053547;28;20047;-68
2023/05/15 10:57:30;;;;;;;13.52;9.15;;;17.20;99.90;;;;;;5048075;28;20303;-67
2023/05/15 10:59:57;;;;;;;13.80;8.68;;;17.20;99.90;;;;;;5053880;28;20052;-68
2023/05/15 11:02:25;;;;;;;11.95;7.90;;;17.30;99.90;;;;;;5066080;28;20037;-67
2023/05/15 11:04:59;;;;;;;13.07;8.32;;;17.30;99.90;;;;;;5052052;28;20052;-69
2023/05/15 11:07:26;;;;;;;13.63;7.22;;;17.40;99.90;;;;;;5051003;28;20051;-70
2023/05/15 11:09:53;;;;;;;11.70;7.90;;;17.50;99.90;;;;;;5052986;28;20048;-69
2023/05/15 11:12:19;;;;;;;11.93;8.23;;;17.50;99.90;;;;;;5052486;28;20440;-69
2023/05/15 11:14:51;;;;;;;11.05;7.40;;;17.50;99.90;;;;;;5054329;28;20614;-68
2023/05/15 11:17:17;;;;;;;12.02;8.05;;;17.50;99.90;;;;;;5054336;28;20557;-68
2023/05/15 11:19:49;;;;;;;12.95;7.93;;;17.40;99.90;;;;;;5057071;28;20033;-71
2023/05/15 11:22:32;;;;;;;11.82;8.43;;;17.40;99.90;;;;;;5069895;28;20683;-69
2023/05/15 11:25:10;;;;;;;13.43;8.60;;;17.40;99.90;;;;;;5056739;28;20040;-67
2023/05/15 11:27:39;;;;;;;11.77;8.38;;;17.40;99.90;;;;;;5035939;28;20050;-69
2023/05/15 11:30:12;;;;;;;12.18;8.45;;;17.40;99.90;;;;;;5056041;28;20044;-67
2023/05/15 11:32:58;;;;;;;11.43;9.00;;;17.50;99.90;;;;;;5056091;28;20060;-66
2023/05/15 11:35:29;;;;;;;14.52;8.75;;;17.60;99.90;;;;;;5066328;28;20041;-67
2023/05/15 11:38:01;;;;;;;12.80;7.93;;;17.50;99.90;;;;;;5063752;28;20657;-67
2023/05/15 11:40:28;;;;;;;14.38;9.07;;;17.50;99.90;;;;;;5048723;28;20557;-69
2023/05/15 11:43:01;;;;;;;13.05;9.10;;;17.50;99.90;;;;;;5048934;28;20348;-68
2023/05/15 11:45:29;;;;;;;11.95;8.90;;;17.40;99.90;;;;;;5065517;28;20519;-69
2023/05/15 11:47:56;;;;;;;14.02;9.10;;;17.40;99.90;;;;;;5047899;28;20080;-65
2023/05/15 11:50:22;;;;;;;13.32;8.98;;;17.40;99.90;;;;;;5063058;28;20617;-67
2023/05/15 11:52:48;;;;;;;13.02;9.30;;;17.30;99.90;;;;;;5060032;28;21139;-68
2023/05/15 11:55:17;;;;;;;14.50;9.02;;;17.30;99.90;;;;;;5046774;28;20048;-66
2023/05/15 11:57:45;;;;;;;12.70;8.48;;;17.40;99.90;;;;;;5030020;28;20052;-64
2023/05/15 12:00:11;;;;;;;14.02;7.75;;;17.30;99.90;;;;;;5062653;28;20132;-63
2023/05/15 12:02:37;;;;;;;12.30;8.90;;;17.30;99.90;;;;;;5065384;28;20032;-62
2023/05/15 12:05:06;;;;;;;14.82;9.30;;;17.40;99.90;;;;;;5063710;28;20526;-64
2023/05/15 12:07:36;;;;;;;15.43;8.27;;;17.40;99.90;;;;;;5064255;28;20033;-64
2023/05/15 12:10:02;;;;;;;11.50;7.75;;;17.40;99.90;;;;;;5080709;28;20189;-62
2023/05/15 12:12:28;;;;;;;13.80;7.88;;;17.50;99.90;;;;;;5051349;28;20482;-63
2023/05/15 12:14:58;;;;;;;12.38;8.00;;;17.40;99.90;;;;;;5045328;28;20041;-63
2023/05/15 12:17:24;;;;;;;10.73;8.63;;;17.40;99.90;;;;;;5053927;28;20047;-63
2023/05/15 12:19:51;;;;;;;12.65;8.00;;;17.40;99.90;;;;;;5056935;28;20037;-61
2023/05/15 12:22:17;;;;;;;15.50;7.68;;;17.30;99.90;;;;;;5060479;28;20133;-61
2023/05/15 12:24:44;;;;;;;14.32;9.52;;;17.30;99.90;;;;;;5059822;28;20112;-63
2023/05/15 12:27:10;;;;;;;16.00;9.38;;;17.30;99.90;;;;;;5048050;28;20043;-62
2023/05/15 12:29:37;;;;;;;17.48;9.02;;;17.20;99.90;;;;;;5048776;28;20039;-63
2023/05/15 12:32:04;;;;;;;12.77;8.90;;;17.10;99.90;;;;;;5056875;28;20064;-64